sensor_id;sensor_type;location;lat;lon;timestamp;pressure;altitude;pressure_sealevel;temperature;humidity
9839;BME280;4958;48.150;11.506;2023-09-07T00:00:58;95740.72;;;20.46;67.26
9839;BME280;4958;48.150;11.506;2023-09-07T00:03:25;95745.72;;;20.48;67.62
9839;BME280;4958;48.150;11.506;2023-09-07T00:05:51;95772.50;;;20.38;68.48
9839;BME280;4958;48.150;11.506;2023-09-07T00:08:19;95760.28;;;20.44;68.20
9839;BME280;4958;48.150;11.506;2023-09-07T00:10:45;95763.72;;;20.44;68.38
9839;BME280;4958;48.150;11.506;2023-09-07T00:13:12;95765.53;;;20.44;68.69
9839;BME280;4958;48.150;11.506;2023-09-07T00:15:38;95777.59;;;20.45;69.01
9839;BME280;4958;48.150;11.506;2023-09-07T00:18:05;95781.94;;;20.39;69.25
9839;BME280;4958;48.150;11.506;2023-09-07T00:20:32;95785.34;;;20.40;69.54
9839;BME280;4958;48.150;11.506;2023-09-07T00:22:59;95799.31;;;20.33;69.95
9839;BME280;4958;48.150;11.506;2023-09-07T00:25:27;95785.59;;;20.38;69.69
9839;BME280;4958;48.150;11.506;2023-09-07T00:27:54;95773.59;;;20.42;69.53
9839;BME280;4958;48.150;11.506;2023-09-07T00:30:20;95779.19;;;20.46;69.19
9839;BME280;4958;48.150;11.506;2023-09-07T00:32:47;95776.78;;;20.44;69.71
9839;BME280;4958;48.150;11.506;2023-09-07T00:35:13;95762.91;;;20.44;68.96
9839;BME280;4958;48.150;11.506;2023-09-07T00:37:40;95768.88;;;20.39;69.33
9839;BME280;4958;48.150;11.506;2023-09-07T00:40:07;95760.88;;;20.34;69.32
9839;BME280;4958;48.150;11.506;2023-09-07T00:42:36;95773.53;;;20.25;69.94
9839;BME280;4958;48.150;11.506;2023-09-07T00:45:03;95785.00;;;20.24;70.00
9839;BME280;4958;48.150;11.506;2023-09-07T00:47:30;95800.28;;;20.16;70.50
9839;BME280;4958;48.150;11.506;2023-09-07T00:49:58;95804.84;;;20.09;70.61
9839;BME280;4958;48.150;11.506;2023-09-07T00:52:25;95821.78;;;20.06;70.99
9839;BME280;4958;48.150;11.506;2023-09-07T00:54:52;95820.19;;;20.05;71.11
9839;BME280;4958;48.150;11.506;2023-09-07T00:57:19;95818.28;;;20.00;71.29
9839;BME280;4958;48.150;11.506;2023-09-07T00:59:46;95818.00;;;20.02;71.23
9839;BME280;4958;48.150;11.506;2023-09-07T01:02:13;95814.94;;;20.05;71.07
9839;BME280;4958;48.150;11.506;2023-09-07T01:04:40;95817.34;;;20.07;71.06
9839;BME280;4958;48.150;11.506;2023-09-07T01:07:11;95818.13;;;20.07;70.94
9839;BME280;4958;48.150;11.506;2023-09-07T01:09:40;95824.28;;;20.01;71.11
9839;BME280;4958;48.150;11.506;2023-09-07T01:12:14;95818.94;;;20.08;71.29
9839;BME280;4958;48.150;11.506;2023-09-07T01:14:40;95809.59;;;20.12;70.94
9839;BME280;4958;48.150;11.506;2023-09-07T01:17:09;95803.81;;;20.10;71.03
9839;BME280;4958;48.150;11.506;2023-09-07T01:19:35;95801.75;;;20.12;70.87
9839;BME280;4958;48.150;11.506;2023-09-07T01:22:04;95805.84;;;20.08;70.97
9839;BME280;4958;48.150;11.506;2023-09-07T01:24:32;95805.28;;;20.06;71.02
9839;BME280;4958;48.150;11.506;2023-09-07T01:27:00;95808.63;;;20.01;71.30
9839;BME280;4958;48.150;11.506;2023-09-07T01:29:28;95797.91;;;20.02;70.96
9839;BME280;4958;48.150;11.506;2023-09-07T01:31:55;95798.00;;;20.08;70.94
9839;BME280;4958;48.150;11.506;2023-09-07T01:34:22;95788.81;;;20.05;70.83
9839;BME280;4958;48.150;11.506;2023-09-07T01:36:48;95804.63;;;19.87;71.53
9839;BME280;4958;48.150;11.506;2023-09-07T01:39:16;95806.81;;;19.78;71.76
9839;BME280;4958;48.150;11.506;2023-09-07T01:41:43;95820.56;;;19.74;71.95
9839;BME280;4958;48.150;11.506;2023-09-07T01:44:09;95817.25;;;19.78;71.78
9839;BME280;4958;48.150;11.506;2023-09-07T01:46:36;95809.44;;;19.78;71.77
9839;BME280;4958;48.150;11.506;2023-09-07T01:49:02;95799.44;;;19.75;71.64
9839;BME280;4958;48.150;11.506;2023-09-07T01:51:29;95807.59;;;19.67;71.64
9839;BME280;4958;48.150;11.506;2023-09-07T01:53:55;95796.25;;;19.73;71.31
9839;BME280;4958;48.150;11.506;2023-09-07T01:56:23;95797.72;;;19.69;71.30
9839;BME280;4958;48.150;11.506;2023-09-07T01:58:49;95795.47;;;19.61;71.26
9839;BME280;4958;48.150;11.506;2023-09-07T02:01:24;95795.00;;;19.52;71.50
9839;BME280;4958;48.150;11.506;2023-09-07T02:03:51;95800.44;;;19.51;71.74
9839;BME280;4958;48.150;11.506;2023-09-07T02:06:18;95796.00;;;19.51;71.45
9839;BME280;4958;48.150;11.506;2023-09-07T02:08:44;95800.22;;;19.52;71.57
9839;BME280;4958;48.150;11.506;2023-09-07T02:11:11;95803.47;;;19.48;71.60
9839;BME280;4958;48.150;11.506;2023-09-07T02:13:41;95807.22;;;19.40;72.16
9839;BME280;4958;48.150;11.506;2023-09-07T02:16:07;95815.38;;;19.32;72.37
9839;BME280;4958;48.150;11.506;2023-09-07T02:18:35;95810.16;;;19.32;72.13
9839;BME280;4958;48.150;11.506;2023-09-07T02:21:02;95807.78;;;19.30;72.24
9839;BME280;4958;48.150;11.506;2023-09-07T02:23:29;95808.00;;;19.29;72.21
9839;BME280;4958;48.150;11.506;2023-09-07T02:25:55;95790.88;;;19.33;71.40
9839;BME280;4958;48.150;11.506;2023-09-07T02:28:22;95783.38;;;19.37;70.90
9839;BME280;4958;48.150;11.506;2023-09-07T02:30:50;95777.81;;;19.33;70.74
9839;BME280;4958;48.150;11.506;2023-09-07T02:33:16;95772.13;;;19.36;70.39
9839;BME280;4958;48.150;11.506;2023-09-07T02:35:43;95772.91;;;19.25;70.34
9839;BME280;4958;48.150;11.506;2023-09-07T02:38:10;95778.25;;;19.18;70.80
9839;BME280;4958;48.150;11.506;2023-09-07T02:40:40;95789.38;;;19.14;70.79
9839;BME280;4958;48.150;11.506;2023-09-07T02:43:07;95784.72;;;19.16;70.77
9839;BME280;4958;48.150;11.506;2023-09-07T02:45:33;95778.34;;;19.12;70.32
9839;BME280;4958;48.150;11.506;2023-09-07T02:48:01;95776.19;;;19.09;70.52
9839;BME280;4958;48.150;11.506;2023-09-07T02:50:31;95781.97;;;19.11;70.26
9839;BME280;4958;48.150;11.506;2023-09-07T02:52:58;95769.38;;;19.08;70.20
9839;BME280;4958;48.150;11.506;2023-09-07T02:55:25;95771.75;;;19.09;70.24
9839;BME280;4958;48.150;11.506;2023-09-07T02:57:51;95778.78;;;19.09;70.18
9839;BME280;4958;48.150;11.506;2023-09-07T03:00:18;95764.72;;;19.10;69.94
9839;BME280;4958;48.150;11.506;2023-09-07T03:02:45;95760.16;;;18.93;70.18
9839;BME280;4958;48.150;11.506;2023-09-07T03:05:13;95765.03;;;18.90;70.17
9839;BME280;4958;48.150;11.506;2023-09-07T03:07:39;95778.31;;;18.88;70.62
9839;BME280;4958;48.150;11.506;2023-09-07T03:10:06;95784.44;;;18.82;70.83
9839;BME280;4958;48.150;11.506;2023-09-07T03:12:33;95791.53;;;18.75;71.05
9839;BME280;4958;48.150;11.506;2023-09-07T03:15:00;95799.81;;;18.72;71.12
9839;BME280;4958;48.150;11.506;2023-09-07T03:17:28;95804.66;;;18.69;71.00
9839;BME280;4958;48.150;11.506;2023-09-07T03:19:55;95812.88;;;18.54;71.73
9839;BME280;4958;48.150;11.506;2023-09-07T03:22:23;95814.63;;;18.60;71.51
9839;BME280;4958;48.150;11.506;2023-09-07T03:24:50;95806.59;;;18.61;71.26
9839;BME280;4958;48.150;11.506;2023-09-07T03:27:16;95810.09;;;18.49;71.41
9839;BME280;4958;48.150;11.506;2023-09-07T03:29:44;95808.66;;;18.53;71.45
9839;BME280;4958;48.150;11.506;2023-09-07T03:32:10;95800.63;;;18.54;70.90
9839;BME280;4958;48.150;11.506;2023-09-07T03:34:38;95800.69;;;18.48;71.38
9839;BME280;4958;48.150;11.506;2023-09-07T03:37:04;95794.78;;;18.41;71.30
9839;BME280;4958;48.150;11.506;2023-09-07T03:39:32;95800.06;;;18.34;71.50
9839;BME280;4958;48.150;11.506;2023-09-07T03:41:59;95807.31;;;18.32;71.86
9839;BME280;4958;48.150;11.506;2023-09-07T03:44:25;95824.94;;;18.18;72.31
9839;BME280;4958;48.150;11.506;2023-09-07T03:46:52;95829.50;;;18.23;72.33
9839;BME280;4958;48.150;11.506;2023-09-07T03:49:21;95829.06;;;18.26;71.97
9839;BME280;4958;48.150;11.506;2023-09-07T03:51:48;95822.84;;;18.27;71.72
9839;BME280;4958;48.150;11.506;2023-09-07T03:54:14;95833.03;;;18.10;72.39
9839;BME280;4958;48.150;11.506;2023-09-07T03:56:42;95834.78;;;18.16;72.31
9839;BME280;4958;48.150;11.506;2023-09-07T03:59:08;95837.00;;;18.13;72.43
9839;BME280;4958;48.150;11.506;2023-09-07T04:01:36;95829.34;;;18.18;72.10
9839;BME280;4958;48.150;11.506;2023-09-07T04:04:02;95828.97;;;18.14;72.14
9839;BME280;4958;48.150;11.506;2023-09-07T04:06:29;95829.72;;;18.21;71.91
9839;BME280;4958;48.150;11.506;2023-09-07T04:08:55;95816.81;;;18.26;71.71
9839;BME280;4958;48.150;11.506;2023-09-07T04:11:22;95825.88;;;18.24;71.47
9839;BME280;4958;48.150;11.506;2023-09-07T04:13:50;95817.31;;;18.17;71.46
9839;BME280;4958;48.150;11.506;2023-09-07T04:16:16;95812.97;;;18.11;71.39
9839;BME280;4958;48.150;11.506;2023-09-07T04:18:43;95819.06;;;18.05;71.46
9839;BME280;4958;48.150;11.506;2023-09-07T04:21:10;95839.91;;;17.86;72.58
9839;BME280;4958;48.150;11.506;2023-09-07T04:23:36;95845.91;;;17.87;72.73
9839;BME280;4958;48.150;11.506;2023-09-07T04:26:06;95860.00;;;17.79;73.39
9839;BME280;4958;48.150;11.506;2023-09-07T04:28:33;95857.97;;;17.81;73.25
9839;BME280;4958;48.150;11.506;2023-09-07T04:31:01;95858.13;;;17.86;72.81
9839;BME280;4958;48.150;11.506;2023-09-07T04:33:29;95846.84;;;17.92;72.36
9839;BME280;4958;48.150;11.506;2023-09-07T04:35:56;95854.88;;;17.91;72.67
9839;BME280;4958;48.150;11.506;2023-09-07T04:38:22;95851.72;;;17.89;72.64
9839;BME280;4958;48.150;11.506;2023-09-07T04:40:49;95856.69;;;17.90;72.87
9839;BME280;4958;48.150;11.506;2023-09-07T04:43:15;95862.47;;;17.92;72.80
9839;BME280;4958;48.150;11.506;2023-09-07T04:45:45;95856.84;;;17.95;72.30
9839;BME280;4958;48.150;11.506;2023-09-07T04:48:13;95849.22;;;17.94;71.91
9839;BME280;4958;48.150;11.506;2023-09-07T04:50:40;95892.09;;;17.98;73.81
9839;BME280;4958;48.150;11.506;2023-09-07T04:53:06;95874.59;;;18.05;73.19
9839;BME280;4958;48.150;11.506;2023-09-07T04:55:37;95869.28;;;18.12;73.13
9839;BME280;4958;48.150;11.506;2023-09-07T04:58:03;95898.91;;;18.17;73.97
9839;BME280;4958;48.150;11.506;2023-09-07T05:00:30;95866.19;;;18.21;72.93
9839;BME280;4958;48.150;11.506;2023-09-07T05:02:57;95864.19;;;18.23;72.97
9839;BME280;4958;48.150;11.506;2023-09-07T05:05:24;95829.19;;;18.31;71.18
9839;BME280;4958;48.150;11.506;2023-09-07T05:07:51;95837.78;;;18.32;71.68
9839;BME280;4958;48.150;11.506;2023-09-07T05:10:17;95832.94;;;18.35;71.33
9839;BME280;4958;48.150;11.506;2023-09-07T05:12:47;95826.66;;;18.43;71.00
9839;BME280;4958;48.150;11.506;2023-09-07T05:15:13;95827.13;;;18.51;70.91
9839;BME280;4958;48.150;11.506;2023-09-07T05:17:40;95836.19;;;18.49;71.46
9839;BME280;4958;48.150;11.506;2023-09-07T05:20:07;95874.63;;;18.60;72.32
9839;BME280;4958;48.150;11.506;2023-09-07T05:22:36;95862.34;;;18.79;71.77
9839;BME280;4958;48.150;11.506;2023-09-07T05:25:05;95843.00;;;18.98;71.18
9839;BME280;4958;48.150;11.506;2023-09-07T05:27:33;95809.09;;;19.10;69.84
9839;BME280;4958;48.150;11.506;2023-09-07T05:29:59;95809.44;;;19.13;69.81
9839;BME280;4958;48.150;11.506;2023-09-07T05:32:26;95789.84;;;19.22;68.89
9839;BME280;4958;48.150;11.506;2023-09-07T05:34:52;95777.47;;;19.18;68.70
9839;BME280;4958;48.150;11.506;2023-09-07T05:37:21;95792.75;;;19.03;69.33
9839;BME280;4958;48.150;11.506;2023-09-07T05:39:49;95815.63;;;18.89;69.99
9839;BME280;4958;48.150;11.506;2023-09-07T05:42:16;95820.25;;;18.87;70.15
9839;BME280;4958;48.150;11.506;2023-09-07T05:44:42;95849.44;;;18.84;70.65
9839;BME280;4958;48.150;11.506;2023-09-07T05:47:09;95867.13;;;18.82;71.54
9839;BME280;4958;48.150;11.506;2023-09-07T05:49:35;95878.03;;;18.90;71.74
9839;BME280;4958;48.150;11.506;2023-09-07T05:52:02;95886.22;;;18.94;72.23
9839;BME280;4958;48.150;11.506;2023-09-07T05:54:31;95885.44;;;19.05;71.64
9839;BME280;4958;48.150;11.506;2023-09-07T05:56:59;95893.19;;;19.12;72.02
9839;BME280;4958;48.150;11.506;2023-09-07T05:59:26;95894.56;;;19.14;72.13
9839;BME280;4958;48.150;11.506;2023-09-07T06:01:52;95891.88;;;19.21;72.03
9839;BME280;4958;48.150;11.506;2023-09-07T06:04:19;95884.16;;;19.26;71.79
9839;BME280;4958;48.150;11.506;2023-09-07T06:06:45;95895.75;;;19.30;72.31
9839;BME280;4958;48.150;11.506;2023-09-07T06:09:12;95928.09;;;19.29;73.01
9839;BME280;4958;48.150;11.506;2023-09-07T06:11:40;95917.34;;;19.37;72.77
9839;BME280;4958;48.150;11.506;2023-09-07T06:14:10;95913.59;;;19.45;72.56
9839;BME280;4958;48.150;11.506;2023-09-07T06:16:37;95915.16;;;19.52;72.57
9839;BME280;4958;48.150;11.506;2023-09-07T06:19:04;95911.88;;;19.57;72.49
9839;BME280;4958;48.150;11.506;2023-09-07T06:21:32;95913.25;;;19.59;72.57
9839;BME280;4958;48.150;11.506;2023-09-07T06:23:59;95911.66;;;19.70;72.26
9839;BME280;4958;48.150;11.506;2023-09-07T06:26:26;95912.34;;;19.77;72.78
9839;BME280;4958;48.150;11.506;2023-09-07T06:28:52;95915.19;;;19.87;72.67
9839;BME280;4958;48.150;11.506;2023-09-07T06:31:20;95904.28;;;20.02;72.53
9839;BME280;4958;48.150;11.506;2023-09-07T06:33:46;95885.31;;;20.18;71.86
9839;BME280;4958;48.150;11.506;2023-09-07T06:36:13;95869.94;;;20.33;71.09
9839;BME280;4958;48.150;11.506;2023-09-07T06:38:39;95870.16;;;20.44;70.71
9839;BME280;4958;48.150;11.506;2023-09-07T06:41:06;95854.34;;;20.50;70.44
9839;BME280;4958;48.150;11.506;2023-09-07T06:43:34;95850.59;;;20.46;70.47
9839;BME280;4958;48.150;11.506;2023-09-07T06:46:05;95849.28;;;20.60;70.25
9839;BME280;4958;48.150;11.506;2023-09-07T06:48:33;95840.41;;;20.73;69.50
9839;BME280;4958;48.150;11.506;2023-09-07T06:51:01;95812.41;;;20.74;68.96
9839;BME280;4958;48.150;11.506;2023-09-07T06:53:28;95806.94;;;20.75;68.87
9839;BME280;4958;48.150;11.506;2023-09-07T06:55:57;95822.41;;;20.77;69.45
9839;BME280;4958;48.150;11.506;2023-09-07T06:58:23;95801.16;;;20.73;68.43
9839;BME280;4958;48.150;11.506;2023-09-07T07:00:50;95792.28;;;20.91;68.24
9839;BME280;4958;48.150;11.506;2023-09-07T07:03:16;95812.09;;;20.87;68.38
9839;BME280;4958;48.150;11.506;2023-09-07T07:05:44;95796.03;;;20.95;68.23
9839;BME280;4958;48.150;11.506;2023-09-07T07:08:11;95768.59;;;21.14;67.26
9839;BME280;4958;48.150;11.506;2023-09-07T07:10:37;95763.13;;;21.16;67.08
9839;BME280;4958;48.150;11.506;2023-09-07T07:13:06;95755.75;;;21.29;66.90
9839;BME280;4958;48.150;11.506;2023-09-07T07:15:33;95723.91;;;21.37;65.67
9839;BME280;4958;48.150;11.506;2023-09-07T07:18:00;95730.22;;;21.58;65.74
9839;BME280;4958;48.150;11.506;2023-09-07T07:20:26;95720.75;;;21.74;65.07
9839;BME280;4958;48.150;11.506;2023-09-07T07:22:54;95702.69;;;21.99;64.40
9839;BME280;4958;48.150;11.506;2023-09-07T07:25:24;95682.69;;;22.15;63.81
9839;BME280;4958;48.150;11.506;2023-09-07T07:27:50;95656.34;;;22.27;62.94
9839;BME280;4958;48.150;11.506;2023-09-07T07:30:17;95647.88;;;22.52;62.61
9839;BME280;4958;48.150;11.506;2023-09-07T07:32:44;95649.50;;;22.85;62.48
9839;BME280;4958;48.150;11.506;2023-09-07T07:35:10;95593.38;;;22.96;60.86
9839;BME280;4958;48.150;11.506;2023-09-07T07:37:37;95619.97;;;23.04;61.63
9839;BME280;4958;48.150;11.506;2023-09-07T07:40:06;95584.53;;;23.12;60.79
9839;BME280;4958;48.150;11.506;2023-09-07T07:42:33;95546.53;;;23.30;59.86
9839;BME280;4958;48.150;11.506;2023-09-07T07:44:59;95543.44;;;23.43;59.60
9839;BME280;4958;48.150;11.506;2023-09-07T07:47:26;95515.09;;;23.55;58.91
9839;BME280;4958;48.150;11.506;2023-09-07T07:49:52;95521.22;;;23.81;59.30
9839;BME280;4958;48.150;11.506;2023-09-07T07:52:19;95493.84;;;23.92;58.61
9839;BME280;4958;48.150;11.506;2023-09-07T07:54:47;95493.88;;;23.97;58.43
9839;BME280;4958;48.150;11.506;2023-09-07T07:57:17;95474.13;;;24.15;57.79
9839;BME280;4958;48.150;11.506;2023-09-07T07:59:43;95445.47;;;24.34;57.21
9839;BME280;4958;48.150;11.506;2023-09-07T08:02:10;95461.50;;;24.12;57.77
9839;BME280;4958;48.150;11.506;2023-09-07T08:04:36;95467.81;;;24.06;57.63
9839;BME280;4958;48.150;11.506;2023-09-07T08:07:03;95464.94;;;24.28;57.55
9839;BME280;4958;48.150;11.506;2023-09-07T08:09:30;95425.69;;;24.47;56.83
9839;BME280;4958;48.150;11.506;2023-09-07T08:11:56;95419.78;;;24.80;56.37
9839;BME280;4958;48.150;11.506;2023-09-07T08:14:24;95380.75;;;24.87;55.71
9839;BME280;4958;48.150;11.506;2023-09-07T08:16:53;95365.75;;;24.88;55.37
9839;BME280;4958;48.150;11.506;2023-09-07T08:19:19;95354.25;;;24.73;55.09
9839;BME280;4958;48.150;11.506;2023-09-07T08:21:46;95389.09;;;24.50;56.34
9839;BME280;4958;48.150;11.506;2023-09-07T08:24:12;95377.97;;;24.63;56.19
9839;BME280;4958;48.150;11.506;2023-09-07T08:26:39;95390.34;;;24.68;55.83
9839;BME280;4958;48.150;11.506;2023-09-07T08:29:06;95407.09;;;24.92;56.41
9839;BME280;4958;48.150;11.506;2023-09-07T08:31:35;95405.78;;;24.95;56.35
9839;BME280;4958;48.150;11.506;2023-09-07T08:34:05;95358.50;;;25.19;54.94
9839;BME280;4958;48.150;11.506;2023-09-07T08:36:32;95366.44;;;25.47;55.27
9839;BME280;4958;48.150;11.506;2023-09-07T08:38:59;95348.41;;;25.65;55.02
9839;BME280;4958;48.150;11.506;2023-09-07T08:41:26;95313.44;;;25.83;54.14
9839;BME280;4958;48.150;11.506;2023-09-07T08:43:54;95266.28;;;25.76;53.27
9839;BME280;4958;48.150;11.506;2023-09-07T08:46:22;95330.59;;;25.80;54.39
9839;BME280;4958;48.150;11.506;2023-09-07T08:48:51;95300.44;;;26.15;53.24
9839;BME280;4958;48.150;11.506;2023-09-07T08:51:18;95269.94;;;26.28;52.82
9839;BME280;4958;48.150;11.506;2023-09-07T08:53:45;95215.94;;;26.39;51.85
9839;BME280;4958;48.150;11.506;2023-09-07T08:56:13;95215.81;;;26.68;51.49
9839;BME280;4958;48.150;11.506;2023-09-07T08:58:39;95183.84;;;26.51;50.96
9839;BME280;4958;48.150;11.506;2023-09-07T09:01:06;95191.41;;;26.39;51.55
9839;BME280;4958;48.150;11.506;2023-09-07T09:03:33;95219.03;;;26.46;51.97
9839;BME280;4958;48.150;11.506;2023-09-07T09:06:02;95194.63;;;26.55;51.57
9839;BME280;4958;48.150;11.506;2023-09-07T09:08:29;95180.50;;;26.78;51.36
9839;BME280;4958;48.150;11.506;2023-09-07T09:10:59;95159.38;;;26.78;50.79
9839;BME280;4958;48.150;11.506;2023-09-07T09:13:29;95188.22;;;27.12;51.27
9839;BME280;4958;48.150;11.506;2023-09-07T09:15:59;95151.72;;;27.28;50.45
9839;BME280;4958;48.150;11.506;2023-09-07T09:18:25;95105.97;;;27.41;49.64
9839;BME280;4958;48.150;11.506;2023-09-07T09:20:52;95135.06;;;27.41;50.16
9839;BME280;4958;48.150;11.506;2023-09-07T09:23:20;95111.56;;;27.12;49.74
9839;BME280;4958;48.150;11.506;2023-09-07T09:25:47;95154.53;;;27.17;50.66
9839;BME280;4958;48.150;11.506;2023-09-07T09:28:14;95153.88;;;27.53;50.78
9839;BME280;4958;48.150;11.506;2023-09-07T09:30:41;95074.91;;;27.33;49.35
9839;BME280;4958;48.150;11.506;2023-09-07T09:33:09;95107.16;;;27.48;50.25
9839;BME280;4958;48.150;11.506;2023-09-07T09:35:37;95095.97;;;27.38;49.83
9839;BME280;4958;48.150;11.506;2023-09-07T09:38:04;95133.16;;;27.14;50.97
9839;BME280;4958;48.150;11.506;2023-09-07T09:40:32;95121.13;;;27.08;50.54
9839;BME280;4958;48.150;11.506;2023-09-07T09:43:01;95158.16;;;26.89;51.26
9839;BME280;4958;48.150;11.506;2023-09-07T09:45:28;95168.72;;;27.08;51.39
9839;BME280;4958;48.150;11.506;2023-09-07T09:47:55;95188.84;;;27.50;50.98
9839;BME280;4958;48.150;11.506;2023-09-07T09:50:22;95156.06;;;27.65;50.83
9839;BME280;4958;48.150;11.506;2023-09-07T09:52:50;95169.00;;;27.66;51.34
9839;BME280;4958;48.150;11.506;2023-09-07T09:55:19;95181.16;;;27.67;51.27
9839;BME280;4958;48.150;11.506;2023-09-07T09:57:47;95124.88;;;27.48;50.13
9839;BME280;4958;48.150;11.506;2023-09-07T10:00:21;95129.28;;;27.25;50.19
9839;BME280;4958;48.150;11.506;2023-09-07T10:03:01;95163.22;;;27.18;50.97
9839;BME280;4958;48.150;11.506;2023-09-07T10:05:29;95139.66;;;27.22;50.83
9839;BME280;4958;48.150;11.506;2023-09-07T10:08:00;95127.81;;;27.46;50.18
9839;BME280;4958;48.150;11.506;2023-09-07T10:10:33;95130.06;;;27.39;50.45
9839;BME280;4958;48.150;11.506;2023-09-07T10:13:01;95117.00;;;27.15;50.84
9839;BME280;4958;48.150;11.506;2023-09-07T10:15:29;95169.66;;;27.44;51.00
9839;BME280;4958;48.150;11.506;2023-09-07T10:18:04;95198.34;;;27.51;51.90
9839;BME280;4958;48.150;11.506;2023-09-07T10:20:35;95231.00;;;27.74;52.54
9839;BME280;4958;48.150;11.506;2023-09-07T10:23:12;95170.28;;;27.69;50.96
9839;BME280;4958;48.150;11.506;2023-09-07T10:25:39;95169.38;;;27.60;51.30
9839;BME280;4958;48.150;11.506;2023-09-07T10:28:17;95193.38;;;27.63;51.46
9839;BME280;4958;48.150;11.506;2023-09-07T10:30:44;95167.28;;;27.43;51.40
9839;BME280;4958;48.150;11.506;2023-09-07T10:33:19;95193.59;;;27.34;51.44
9839;BME280;4958;48.150;11.506;2023-09-07T10:35:46;95150.72;;;27.37;50.99
9839;BME280;4958;48.150;11.506;2023-09-07T10:38:13;95173.44;;;27.38;51.54
9839;BME280;4958;48.150;11.506;2023-09-07T10:40:41;95151.22;;;27.39;51.04
9839;BME280;4958;48.150;11.506;2023-09-07T10:43:11;95188.81;;;27.23;51.96
9839;BME280;4958;48.150;11.506;2023-09-07T10:45:37;95206.78;;;27.07;52.31
9839;BME280;4958;48.150;11.506;2023-09-07T10:48:05;95232.16;;;27.08;52.55
9839;BME280;4958;48.150;11.506;2023-09-07T10:50:42;95248.31;;;27.20;52.95
9839;BME280;4958;48.150;11.506;2023-09-07T10:53:08;95218.09;;;27.26;52.89
9839;BME280;4958;48.150;11.506;2023-09-07T10:55:36;95220.81;;;27.21;52.43
9839;BME280;4958;48.150;11.506;2023-09-07T10:58:03;95236.09;;;27.24;52.96
9839;BME280;4958;48.150;11.506;2023-09-07T11:00:31;95267.94;;;27.33;53.54
9839;BME280;4958;48.150;11.506;2023-09-07T11:02:58;95281.84;;;27.25;53.77
9839;BME280;4958;48.150;11.506;2023-09-07T11:05:25;95225.75;;;27.28;52.81
9839;BME280;4958;48.150;11.506;2023-09-07T11:07:52;95208.47;;;27.16;52.67
9839;BME280;4958;48.150;11.506;2023-09-07T11:10:19;95243.16;;;27.29;52.84
9839;BME280;4958;48.150;11.506;2023-09-07T11:12:46;95265.34;;;27.46;53.16
9839;BME280;4958;48.150;11.506;2023-09-07T11:15:12;95254.88;;;27.55;52.96
9839;BME280;4958;48.150;11.506;2023-09-07T11:17:40;95213.78;;;27.63;52.18
9839;BME280;4958;48.150;11.506;2023-09-07T11:20:07;95220.47;;;27.55;52.63
9839;BME280;4958;48.150;11.506;2023-09-07T11:22:35;95230.38;;;27.49;53.16
9839;BME280;4958;48.150;11.506;2023-09-07T11:25:04;95218.84;;;27.59;52.56
9839;BME280;4958;48.150;11.506;2023-09-07T11:27:31;95169.34;;;27.46;51.83
9839;BME280;4958;48.150;11.506;2023-09-07T11:29:58;95196.38;;;27.43;52.46
9839;BME280;4958;48.150;11.506;2023-09-07T11:32:33;95176.88;;;27.39;51.98
9839;BME280;4958;48.150;11.506;2023-09-07T11:35:01;95189.78;;;27.27;52.39
9839;BME280;4958;48.150;11.506;2023-09-07T11:37:28;95172.16;;;27.22;52.17
9839;BME280;4958;48.150;11.506;2023-09-07T11:39:54;95215.75;;;27.38;52.70
9839;BME280;4958;48.150;11.506;2023-09-07T11:42:21;95192.38;;;27.45;52.60
9839;BME280;4958;48.150;11.506;2023-09-07T11:44:48;95201.59;;;27.48;52.54
9839;BME280;4958;48.150;11.506;2023-09-07T11:47:14;95208.97;;;27.65;52.56
9839;BME280;4958;48.150;11.506;2023-09-07T11:49:41;95185.16;;;27.78;52.26
9839;BME280;4958;48.150;11.506;2023-09-07T11:52:09;95139.97;;;27.75;51.54
9839;BME280;4958;48.150;11.506;2023-09-07T11:54:35;95123.81;;;27.76;50.95
9839;BME280;4958;48.150;11.506;2023-09-07T11:57:02;95145.72;;;27.91;51.15
9839;BME280;4958;48.150;11.506;2023-09-07T11:59:29;95144.25;;;27.98;51.51
9839;BME280;4958;48.150;11.506;2023-09-07T12:01:56;95131.03;;;27.98;51.27
9839;BME280;4958;48.150;11.506;2023-09-07T12:04:22;95111.25;;;27.82;51.17
9839;BME280;4958;48.150;11.506;2023-09-07T12:06:49;95139.38;;;27.78;51.45
9839;BME280;4958;48.150;11.506;2023-09-07T12:09:17;95128.97;;;27.95;50.87
9839;BME280;4958;48.150;11.506;2023-09-07T12:11:43;95122.75;;;28.13;50.85
9839;BME280;4958;48.150;11.506;2023-09-07T12:14:10;95110.91;;;28.25;50.78
9839;BME280;4958;48.150;11.506;2023-09-07T12:16:37;95090.94;;;28.41;50.38
9839;BME280;4958;48.150;11.506;2023-09-07T12:19:03;95080.75;;;28.57;50.05
9839;BME280;4958;48.150;11.506;2023-09-07T12:21:30;95050.88;;;28.65;48.97
9839;BME280;4958;48.150;11.506;2023-09-07T12:23:56;95031.09;;;28.71;49.28
9839;BME280;4958;48.150;11.506;2023-09-07T12:26:24;95037.16;;;28.63;49.55
9839;BME280;4958;48.150;11.506;2023-09-07T12:28:51;95051.72;;;28.51;49.87
9839;BME280;4958;48.150;11.506;2023-09-07T12:31:19;94996.09;;;28.51;49.05
9839;BME280;4958;48.150;11.506;2023-09-07T12:33:45;95027.16;;;28.60;49.49
9839;BME280;4958;48.150;11.506;2023-09-07T12:36:12;95029.19;;;28.85;49.03
9839;BME280;4958;48.150;11.506;2023-09-07T12:38:38;95015.03;;;28.98;48.62
9839;BME280;4958;48.150;11.506;2023-09-07T12:41:05;94981.53;;;29.02;48.25
9839;BME280;4958;48.150;11.506;2023-09-07T12:43:33;94979.84;;;28.75;48.34
9839;BME280;4958;48.150;11.506;2023-09-07T12:46:00;94983.81;;;28.86;48.39
9839;BME280;4958;48.150;11.506;2023-09-07T12:48:27;94947.66;;;28.91;48.22
9839;BME280;4958;48.150;11.506;2023-09-07T12:50:53;94977.16;;;29.06;48.13
9839;BME280;4958;48.150;11.506;2023-09-07T12:53:21;94929.59;;;29.01;47.34
9839;BME280;4958;48.150;11.506;2023-09-07T12:55:50;94945.69;;;28.74;47.95
9839;BME280;4958;48.150;11.506;2023-09-07T12:58:17;94933.53;;;28.73;47.90
9839;BME280;4958;48.150;11.506;2023-09-07T13:00:45;94939.09;;;28.85;48.12
9839;BME280;4958;48.150;11.506;2023-09-07T13:03:13;94935.97;;;28.83;47.53
9839;BME280;4958;48.150;11.506;2023-09-07T13:05:40;94927.03;;;28.79;47.89
9839;BME280;4958;48.150;11.506;2023-09-07T13:08:06;94945.88;;;28.77;48.41
9839;BME280;4958;48.150;11.506;2023-09-07T13:10:33;94938.00;;;28.95;48.16